sensor_id;sensor_type;location;lat;lon;timestamp;P1;durP1;ratioP1;P2;durP2;ratioP2
44426;SDS011;30133;47.866;-4.222;2024-02-26T00:02:24;2.42;;;1.20;;
44426;SDS011;30133;47.866;-4.222;2024-02-26T00:04:49;4.25;;;1.60;;
44426;SDS011;30133;47.866;-4.222;2024-02-26T00:07:15;6.35;;;1.80;;
44426;SDS011;30133;47.866;-4.222;2024-02-26T00:09:41;2.92;;;1.10;;
44426;SDS011;30133;47.866;-4.222;2024-02-26T00:12:07;3.58;;;1.35;;
44426;SDS011;30133;47.866;-4.222;2024-02-26T00:14:33;5.53;;;1.60;;
44426;SDS011;30133;47.866;-4.222;2024-02-26T00:17:00;5.63;;;1.40;;
44426;SDS011;30133;47.866;-4.222;2024-02-26T00:19:26;5.28;;;1.45;;
44426;SDS011;30133;47.866;-4.222;2024-02-26T00:21:51;7.53;;;1.73;;
44426;SDS011;30133;47.866;-4.222;2024-02-26T00:24:18;5.25;;;1.83;;
44426;SDS011;30133;47.866;-4.222;2024-02-26T00:26:44;5.18;;;2.15;;
44426;SDS011;30133;47.866;-4.222;2024-02-26T00:29:10;3.90;;;1.73;;
44426;SDS011;30133;47.866;-4.222;2024-02-26T00:31:36;2.85;;;1.25;;
44426;SDS011;30133;47.866;-4.222;2024-02-26T00:34:03;5.32;;;1.67;;
44426;SDS011;30133;47.866;-4.222;2024-02-26T00:36:29;4.28;;;1.50;;
44426;SDS011;30133;47.866;-4.222;2024-02-26T00:38:55;4.38;;;1.63;;
44426;SDS011;30133;47.866;-4.222;2024-02-26T00:41:20;4.65;;;1.70;;
44426;SDS011;30133;47.866;-4.222;2024-02-26T00:43:46;3.05;;;1.73;;
44426;SDS011;30133;47.866;-4.222;2024-02-26T00:46:12;4.28;;;1.92;;
44426;SDS011;30133;47.866;-4.222;2024-02-26T00:48:38;5.22;;;1.55;;
44426;SDS011;30133;47.866;-4.222;2024-02-26T00:51:04;4.72;;;1.58;;
44426;SDS011;30133;47.866;-4.222;2024-02-26T00:53:31;6.55;;;1.60;;
44426;SDS011;30133;47.866;-4.222;2024-02-26T00:55:57;4.90;;;1.45;;
44426;SDS011;30133;47.866;-4.222;2024-02-26T00:58:26;3.22;;;1.38;;
44426;SDS011;30133;47.866;-4.222;2024-02-26T01:00:53;3.60;;;1.42;;
44426;SDS011;30133;47.866;-4.222;2024-02-26T01:03:18;4.22;;;1.58;;
44426;SDS011;30133;47.866;-4.222;2024-02-26T01:05:44;5.13;;;1.50;;
44426;SDS011;30133;47.866;-4.222;2024-02-26T01:08:17;3.10;;;1.20;;
44426;SDS011;30133;47.866;-4.222;2024-02-26T01:10:42;4.50;;;1.38;;
44426;SDS011;30133;47.866;-4.222;2024-02-26T01:13:08;3.25;;;1.45;;
44426;SDS011;30133;47.866;-4.222;2024-02-26T01:15:34;4.95;;;1.50;;
44426;SDS011;30133;47.866;-4.222;2024-02-26T01:18:00;4.20;;;1.40;;
44426;SDS011;30133;47.866;-4.222;2024-02-26T01:20:26;3.47;;;1.73;;
44426;SDS011;30133;47.866;-4.222;2024-02-26T01:22:51;4.25;;;1.40;;
44426;SDS011;30133;47.866;-4.222;2024-02-26T01:25:17;3.40;;;1.30;;
44426;SDS011;30133;47.866;-4.222;2024-02-26T01:27:43;3.72;;;1.38;;
44426;SDS011;30133;47.866;-4.222;2024-02-26T01:30:09;4.43;;;1.60;;
44426;SDS011;30133;47.866;-4.222;2024-02-26T01:32:35;3.22;;;1.40;;
44426;SDS011;30133;47.866;-4.222;2024-02-26T01:35:01;4.55;;;1.55;;
44426;SDS011;30133;47.866;-4.222;2024-02-26T01:37:32;7.88;;;1.45;;
44426;SDS011;30133;47.866;-4.222;2024-02-26T01:39:58;4.35;;;1.35;;
44426;SDS011;30133;47.866;-4.222;2024-02-26T01:42:24;3.95;;;1.20;;
44426;SDS011;30133;47.866;-4.222;2024-02-26T01:44:49;4.43;;;1.38;;
44426;SDS011;30133;47.866;-4.222;2024-02-26T01:47:15;5.05;;;1.40;;
44426;SDS011;30133;47.866;-4.222;2024-02-26T01:49:41;5.55;;;1.73;;
44426;SDS011;30133;47.866;-4.222;2024-02-26T01:52:07;2.72;;;1.52;;
44426;SDS011;30133;47.866;-4.222;2024-02-26T01:54:35;3.00;;;1.45;;
44426;SDS011;30133;47.866;-4.222;2024-02-26T01:57:03;3.15;;;1.38;;
44426;SDS011;30133;47.866;-4.222;2024-02-26T01:59:31;5.85;;;1.52;;
44426;SDS011;30133;47.866;-4.222;2024-02-26T02:01:58;2.60;;;1.20;;
44426;SDS011;30133;47.866;-4.222;2024-02-26T02:04:27;2.47;;;1.35;;
44426;SDS011;30133;47.866;-4.222;2024-02-26T02:06:53;3.13;;;1.38;;
44426;SDS011;30133;47.866;-4.222;2024-02-26T02:09:19;2.65;;;1.25;;
44426;SDS011;30133;47.866;-4.222;2024-02-26T02:11:45;2.80;;;1.30;;
44426;SDS011;30133;47.866;-4.222;2024-02-26T02:14:13;5.75;;;1.48;;
44426;SDS011;30133;47.866;-4.222;2024-02-26T02:16:39;6.03;;;1.50;;
44426;SDS011;30133;47.866;-4.222;2024-02-26T02:19:05;4.15;;;1.30;;
44426;SDS011;30133;47.866;-4.222;2024-02-26T02:21:31;3.45;;;1.30;;
44426;SDS011;30133;47.866;-4.222;2024-02-26T02:23:57;3.55;;;1.42;;
44426;SDS011;30133;47.866;-4.222;2024-02-26T02:26:22;4.13;;;1.35;;
44426;SDS011;30133;47.866;-4.222;2024-02-26T02:28:48;5.00;;;1.40;;
44426;SDS011;30133;47.866;-4.222;2024-02-26T02:31:14;4.57;;;1.42;;
44426;SDS011;30133;47.866;-4.222;2024-02-26T02:33:41;2.33;;;1.20;;
44426;SDS011;30133;47.866;-4.222;2024-02-26T02:36:07;1.98;;;1.10;;
44426;SDS011;30133;47.866;-4.222;2024-02-26T02:38:36;6.75;;;2.25;;
44426;SDS011;30133;47.866;-4.222;2024-02-26T02:41:02;2.38;;;1.05;;
44426;SDS011;30133;47.866;-4.222;2024-02-26T02:43:28;2.92;;;1.15;;
44426;SDS011;30133;47.866;-4.222;2024-02-26T02:45:53;3.92;;;1.35;;
44426;SDS011;30133;47.866;-4.222;2024-02-26T02:48:19;2.25;;;1.00;;
44426;SDS011;30133;47.866;-4.222;2024-02-26T02:50:45;5.93;;;1.25;;
44426;SDS011;30133;47.866;-4.222;2024-02-26T02:53:11;4.55;;;1.55;;
44426;SDS011;30133;47.866;-4.222;2024-02-26T02:55:37;3.30;;;1.27;;
44426;SDS011;30133;47.866;-4.222;2024-02-26T02:58:03;3.42;;;1.40;;
44426;SDS011;30133;47.866;-4.222;2024-02-26T03:00:35;3.58;;;1.20;;
44426;SDS011;30133;47.866;-4.222;2024-02-26T03:03:00;4.57;;;1.58;;
44426;SDS011;30133;47.866;-4.222;2024-02-26T03:05:26;1.90;;;1.08;;
44426;SDS011;30133;47.866;-4.222;2024-02-26T03:07:52;3.25;;;1.17;;
44426;SDS011;30133;47.866;-4.222;2024-02-26T03:10:18;2.58;;;1.00;;
44426;SDS011;30133;47.866;-4.222;2024-02-26T03:12:43;1.73;;;0.98;;
44426;SDS011;30133;47.866;-4.222;2024-02-26T03:15:10;6.15;;;1.25;;
44426;SDS011;30133;47.866;-4.222;2024-02-26T03:17:36;1.75;;;1.08;;
44426;SDS011;30133;47.866;-4.222;2024-02-26T03:20:02;3.17;;;1.10;;
44426;SDS011;30133;47.866;-4.222;2024-02-26T03:22:30;3.67;;;0.98;;
44426;SDS011;30133;47.866;-4.222;2024-02-26T03:24:56;4.07;;;1.20;;
44426;SDS011;30133;47.866;-4.222;2024-02-26T03:27:22;2.10;;;0.90;;
44426;SDS011;30133;47.866;-4.222;2024-02-26T03:29:48;3.83;;;1.30;;
44426;SDS011;30133;47.866;-4.222;2024-02-26T03:32:14;2.50;;;1.05;;
44426;SDS011;30133;47.866;-4.222;2024-02-26T03:34:40;2.05;;;1.23;;
44426;SDS011;30133;47.866;-4.222;2024-02-26T03:37:06;2.95;;;0.98;;
44426;SDS011;30133;47.866;-4.222;2024-02-26T03:39:32;2.70;;;1.00;;
44426;SDS011;30133;47.866;-4.222;2024-02-26T03:41:58;2.13;;;1.30;;
44426;SDS011;30133;47.866;-4.222;2024-02-26T03:44:24;2.67;;;0.90;;
44426;SDS011;30133;47.866;-4.222;2024-02-26T03:46:50;3.65;;;0.73;;
44426;SDS011;30133;47.866;-4.222;2024-02-26T03:49:16;4.80;;;1.00;;
44426;SDS011;30133;47.866;-4.222;2024-02-26T03:51:41;2.60;;;0.98;;
44426;SDS011;30133;47.866;-4.222;2024-02-26T03:54:07;2.60;;;1.10;;
44426;SDS011;30133;47.866;-4.222;2024-02-26T03:56:33;3.35;;;1.25;;
44426;SDS011;30133;47.866;-4.222;2024-02-26T03:58:59;3.83;;;1.20;;
44426;SDS011;30133;47.866;-4.222;2024-02-26T04:01:27;3.63;;;1.00;;
44426;SDS011;30133;47.866;-4.222;2024-02-26T04:03:53;5.68;;;1.05;;
44426;SDS011;30133;47.866;-4.222;2024-02-26T04:06:19;5.50;;;1.38;;
44426;SDS011;30133;47.866;-4.222;2024-02-26T04:08:46;3.33;;;1.20;;
44426;SDS011;30133;47.866;-4.222;2024-02-26T04:11:12;3.03;;;1.10;;
44426;SDS011;30133;47.866;-4.222;2024-02-26T04:13:38;1.73;;;0.98;;
44426;SDS011;30133;47.866;-4.222;2024-02-26T04:16:04;2.95;;;0.90;;
44426;SDS011;30133;47.866;-4.222;2024-02-26T04:18:31;1.80;;;0.88;;
44426;SDS011;30133;47.866;-4.222;2024-02-26T04:20:57;2.55;;;0.90;;
44426;SDS011;30133;47.866;-4.222;2024-02-26T04:23:23;3.53;;;1.10;;
44426;SDS011;30133;47.866;-4.222;2024-02-26T04:25:49;1.35;;;1.10;;
44426;SDS011;30133;47.866;-4.222;2024-02-26T04:28:15;3.35;;;1.15;;
44426;SDS011;30133;47.866;-4.222;2024-02-26T04:30:41;2.78;;;1.23;;
44426;SDS011;30133;47.866;-4.222;2024-02-26T04:33:08;7.25;;;1.25;;
44426;SDS011;30133;47.866;-4.222;2024-02-26T04:35:34;2.30;;;1.00;;
44426;SDS011;30133;47.866;-4.222;2024-02-26T04:38:02;1.95;;;0.95;;
44426;SDS011;30133;47.866;-4.222;2024-02-26T04:40:28;2.25;;;1.10;;
44426;SDS011;30133;47.866;-4.222;2024-02-26T04:42:54;2.83;;;0.95;;
44426;SDS011;30133;47.866;-4.222;2024-02-26T04:45:20;3.60;;;1.52;;
44426;SDS011;30133;47.866;-4.222;2024-02-26T04:47:45;3.35;;;1.00;;
44426;SDS011;30133;47.866;-4.222;2024-02-26T04:50:12;4.30;;;1.20;;
44426;SDS011;30133;47.866;-4.222;2024-02-26T04:52:37;1.63;;;0.90;;
44426;SDS011;30133;47.866;-4.222;2024-02-26T04:55:03;2.50;;;0.88;;
44426;SDS011;30133;47.866;-4.222;2024-02-26T04:57:29;4.88;;;1.05;;
44426;SDS011;30133;47.866;-4.222;2024-02-26T04:59:55;3.75;;;1.17;;
44426;SDS011;30133;47.866;-4.222;2024-02-26T05:02:21;3.53;;;0.90;;
44426;SDS011;30133;47.866;-4.222;2024-02-26T05:04:46;1.88;;;1.00;;
44426;SDS011;30133;47.866;-4.222;2024-02-26T05:07:12;2.70;;;1.10;;
44426;SDS011;30133;47.866;-4.222;2024-02-26T05:09:38;2.65;;;0.88;;
44426;SDS011;30133;47.866;-4.222;2024-02-26T05:12:05;3.80;;;1.23;;
44426;SDS011;30133;47.866;-4.222;2024-02-26T05:14:31;3.58;;;1.00;;
44426;SDS011;30133;47.866;-4.222;2024-02-26T05:16:57;3.90;;;1.10;;
44426;SDS011;30133;47.866;-4.222;2024-02-26T05:19:22;4.82;;;1.30;;
44426;SDS011;30133;47.866;-4.222;2024-02-26T05:21:48;4.63;;;1.25;;
44426;SDS011;30133;47.866;-4.222;2024-02-26T05:24:15;3.83;;;1.10;;
44426;SDS011;30133;47.866;-4.222;2024-02-26T05:26:42;0.98;;;0.70;;
44426;SDS011;30133;47.866;-4.222;2024-02-26T05:29:09;2.85;;;1.00;;
44426;SDS011;30133;47.866;-4.222;2024-02-26T05:31:34;4.25;;;1.00;;
44426;SDS011;30133;47.866;-4.222;2024-02-26T05:34:00;2.63;;;0.90;;
44426;SDS011;30133;47.866;-4.222;2024-02-26T05:36:26;3.22;;;0.80;;
44426;SDS011;30133;47.866;-4.222;2024-02-26T05:38:58;2.97;;;0.93;;
44426;SDS011;30133;47.866;-4.222;2024-02-26T05:41:25;2.15;;;0.88;;
44426;SDS011;30133;47.866;-4.222;2024-02-26T05:43:54;1.90;;;0.82;;
44426;SDS011;30133;47.866;-4.222;2024-02-26T05:46:20;4.90;;;1.30;;
44426;SDS011;30133;47.866;-4.222;2024-02-26T05:48:47;2.60;;;0.95;;
44426;SDS011;30133;47.866;-4.222;2024-02-26T05:51:14;2.83;;;1.30;;
44426;SDS011;30133;47.866;-4.222;2024-02-26T05:53:40;2.85;;;1.00;;
44426;SDS011;30133;47.866;-4.222;2024-02-26T05:56:06;2.30;;;0.90;;
44426;SDS011;30133;47.866;-4.222;2024-02-26T05:58:32;3.17;;;1.13;;
44426;SDS011;30133;47.866;-4.222;2024-02-26T06:00:58;4.50;;;1.30;;
44426;SDS011;30133;47.866;-4.222;2024-02-26T06:03:25;1.48;;;1.00;;
44426;SDS011;30133;47.866;-4.222;2024-02-26T06:05:51;1.45;;;0.70;;
44426;SDS011;30133;47.866;-4.222;2024-02-26T06:08:17;1.63;;;0.90;;
44426;SDS011;30133;47.866;-4.222;2024-02-26T06:10:43;4.85;;;1.10;;
44426;SDS011;30133;47.866;-4.222;2024-02-26T06:13:09;6.82;;;1.30;;
44426;SDS011;30133;47.866;-4.222;2024-02-26T06:15:34;3.72;;;1.20;;
44426;SDS011;30133;47.866;-4.222;2024-02-26T06:18:00;2.70;;;0.98;;
44426;SDS011;30133;47.866;-4.222;2024-02-26T06:20:26;1.58;;;0.95;;
44426;SDS011;30133;47.866;-4.222;2024-02-26T06:22:52;3.00;;;1.00;;
44426;SDS011;30133;47.866;-4.222;2024-02-26T06:25:18;4.13;;;1.20;;
44426;SDS011;30133;47.866;-4.222;2024-02-26T06:27:43;4.25;;;1.00;;
44426;SDS011;30133;47.866;-4.222;2024-02-26T06:30:09;3.95;;;1.20;;
44426;SDS011;30133;47.866;-4.222;2024-02-26T06:32:36;3.78;;;1.00;;
44426;SDS011;30133;47.866;-4.222;2024-02-26T06:35:02;1.90;;;0.80;;
44426;SDS011;30133;47.866;-4.222;2024-02-26T06:37:33;1.90;;;0.93;;
44426;SDS011;30133;47.866;-4.222;2024-02-26T06:39:59;2.83;;;1.10;;
44426;SDS011;30133;47.866;-4.222;2024-02-26T06:42:25;2.90;;;1.13;;
44426;SDS011;30133;47.866;-4.222;2024-02-26T06:44:51;2.67;;;1.25;;
44426;SDS011;30133;47.866;-4.222;2024-02-26T06:47:17;3.25;;;1.15;;
44426;SDS011;30133;47.866;-4.222;2024-02-26T06:49:43;3.78;;;1.45;;
44426;SDS011;30133;47.866;-4.222;2024-02-26T06:52:09;5.80;;;1.30;;
44426;SDS011;30133;47.866;-4.222;2024-02-26T06:54:34;6.80;;;1.38;;
44426;SDS011;30133;47.866;-4.222;2024-02-26T06:57:00;4.30;;;1.17;;
44426;SDS011;30133;47.866;-4.222;2024-02-26T06:59:26;2.65;;;1.20;;
44426;SDS011;30133;47.866;-4.222;2024-02-26T07:01:52;4.35;;;1.45;;
44426;SDS011;30133;47.866;-4.222;2024-02-26T07:04:19;2.90;;;1.27;;
44426;SDS011;30133;47.866;-4.222;2024-02-26T07:06:45;5.78;;;1.58;;
44426;SDS011;30133;47.866;-4.222;2024-02-26T07:09:12;4.30;;;1.30;;
44426;SDS011;30133;47.866;-4.222;2024-02-26T07:11:38;10.07;;;2.00;;
44426;SDS011;30133;47.866;-4.222;2024-02-26T07:14:07;7.45;;;1.40;;
44426;SDS011;30133;47.866;-4.222;2024-02-26T07:16:37;4.28;;;1.98;;
44426;SDS011;30133;47.866;-4.222;2024-02-26T07:19:03;5.07;;;1.35;;
44426;SDS011;30133;47.866;-4.222;2024-02-26T07:21:29;2.28;;;1.20;;
44426;SDS011;30133;47.866;-4.222;2024-02-26T07:23:55;3.20;;;1.17;;
44426;SDS011;30133;47.866;-4.222;2024-02-26T07:26:21;3.85;;;1.27;;
44426;SDS011;30133;47.866;-4.222;2024-02-26T07:28:49;8.95;;;1.85;;
44426;SDS011;30133;47.866;-4.222;2024-02-26T07:31:15;5.82;;;1.40;;
44426;SDS011;30133;47.866;-4.222;2024-02-26T07:33:42;4.13;;;1.92;;
44426;SDS011;30133;47.866;-4.222;2024-02-26T07:36:08;4.90;;;2.08;;
44426;SDS011;30133;47.866;-4.222;2024-02-26T07:38:34;8.40;;;2.08;;
44426;SDS011;30133;47.866;-4.222;2024-02-26T07:41:01;4.65;;;1.40;;
44426;SDS011;30133;47.866;-4.222;2024-02-26T07:43:27;3.55;;;1.30;;
44426;SDS011;30133;47.866;-4.222;2024-02-26T07:45:53;8.07;;;1.60;;
44426;SDS011;30133;47.866;-4.222;2024-02-26T07:48:20;5.43;;;1.88;;
44426;SDS011;30133;47.866;-4.222;2024-02-26T07:50:45;4.00;;;1.33;;
44426;SDS011;30133;47.866;-4.222;2024-02-26T07:53:11;6.70;;;2.03;;
44426;SDS011;30133;47.866;-4.222;2024-02-26T07:55:38;4.30;;;1.55;;
44426;SDS011;30133;47.866;-4.222;2024-02-26T07:58:04;7.28;;;1.48;;
44426;SDS011;30133;47.866;-4.222;2024-02-26T08:00:29;4.93;;;1.58;;
44426;SDS011;30133;47.866;-4.222;2024-02-26T08:02:55;3.53;;;1.50;;
44426;SDS011;30133;47.866;-4.222;2024-02-26T08:05:21;5.13;;;1.60;;
44426;SDS011;30133;47.866;-4.222;2024-02-26T08:07:47;8.32;;;1.50;;
44426;SDS011;30133;47.866;-4.222;2024-02-26T08:10:13;4.72;;;1.75;;
44426;SDS011;30133;47.866;-4.222;2024-02-26T08:12:39;5.75;;;1.73;;
44426;SDS011;30133;47.866;-4.222;2024-02-26T08:15:05;10.55;;;1.80;;
44426;SDS011;30133;47.866;-4.222;2024-02-26T08:17:31;6.50;;;1.60;;
44426;SDS011;30133;47.866;-4.222;2024-02-26T08:19:58;6.00;;;1.70;;
44426;SDS011;30133;47.866;-4.222;2024-02-26T08:22:24;4.70;;;1.60;;
44426;SDS011;30133;47.866;-4.222;2024-02-26T08:24:50;5.07;;;1.65;;
44426;SDS011;30133;47.866;-4.222;2024-02-26T08:27:16;5.10;;;1.23;;
44426;SDS011;30133;47.866;-4.222;2024-02-26T08:29:42;6.63;;;1.83;;
44426;SDS011;30133;47.866;-4.222;2024-02-26T08:32:08;4.68;;;1.67;;
44426;SDS011;30133;47.866;-4.222;2024-02-26T08:34:34;6.57;;;1.77;;
44426;SDS011;30133;47.866;-4.222;2024-02-26T08:37:00;4.40;;;1.75;;
44426;SDS011;30133;47.866;-4.222;2024-02-26T08:39:25;10.52;;;1.95;;
44426;SDS011;30133;47.866;-4.222;2024-02-26T08:41:51;5.88;;;2.03;;
44426;SDS011;30133;47.866;-4.222;2024-02-26T08:44:17;4.32;;;1.65;;
44426;SDS011;30133;47.866;-4.222;2024-02-26T08:46:43;3.70;;;1.15;;
44426;SDS011;30133;47.866;-4.222;2024-02-26T08:49:10;6.20;;;1.90;;
44426;SDS011;30133;47.866;-4.222;2024-02-26T08:51:40;5.90;;;1.55;;
44426;SDS011;30133;47.866;-4.222;2024-02-26T08:54:08;4.32;;;1.40;;
44426;SDS011;30133;47.866;-4.222;2024-02-26T08:56:33;6.55;;;1.67;;
44426;SDS011;30133;47.866;-4.222;2024-02-26T08:58:59;6.45;;;1.73;;
44426;SDS011;30133;47.866;-4.222;2024-02-26T09:01:29;5.35;;;1.52;;
44426;SDS011;30133;47.866;-4.222;2024-02-26T09:03:56;6.40;;;1.50;;
44426;SDS011;30133;47.866;-4.222;2024-02-26T09:06:22;4.35;;;1.45;;
44426;SDS011;30133;47.866;-4.222;2024-02-26T09:08:47;8.68;;;2.20;;
44426;SDS011;30133;47.866;-4.222;2024-02-26T09:11:13;5.38;;;1.50;;
44426;SDS011;30133;47.866;-4.222;2024-02-26T09:13:39;7.20;;;1.85;;
44426;SDS011;30133;47.866;-4.222;2024-02-26T09:16:05;7.15;;;2.22;;
44426;SDS011;30133;47.866;-4.222;2024-02-26T09:18:31;3.15;;;1.40;;
44426;SDS011;30133;47.866;-4.222;2024-02-26T09:20:57;5.70;;;1.85;;
44426;SDS011;30133;47.866;-4.222;2024-02-26T09:23:23;4.53;;;1.70;;
44426;SDS011;30133;47.866;-4.222;2024-02-26T09:25:48;7.65;;;2.00;;
44426;SDS011;30133;47.866;-4.222;2024-02-26T09:28:14;6.32;;;1.80;;
44426;SDS011;30133;47.866;-4.222;2024-02-26T09:30:43;4.53;;;1.60;;
44426;SDS011;30133;47.866;-4.222;2024-02-26T09:33:09;7.70;;;1.45;;
44426;SDS011;30133;47.866;-4.222;2024-02-26T09:35:35;7.22;;;2.13;;
44426;SDS011;30133;47.866;-4.222;2024-02-26T09:38:01;8.07;;;2.15;;
44426;SDS011;30133;47.866;-4.222;2024-02-26T09:40:27;6.00;;;1.58;;
44426;SDS011;30133;47.866;-4.222;2024-02-26T09:42:56;5.28;;;1.75;;
44426;SDS011;30133;47.866;-4.222;2024-02-26T09:45:26;3.75;;;1.50;;
44426;SDS011;30133;47.866;-4.222;2024-02-26T09:47:55;4.97;;;1.70;;
44426;SDS011;30133;47.866;-4.222;2024-02-26T09:50:21;4.63;;;1.40;;
44426;SDS011;30133;47.866;-4.222;2024-02-26T09:52:47;6.25;;;1.60;;
44426;SDS011;30133;47.866;-4.222;2024-02-26T09:55:14;5.07;;;1.60;;
44426;SDS011;30133;47.866;-4.222;2024-02-26T09:57:44;10.88;;;2.30;;
44426;SDS011;30133;47.866;-4.222;2024-02-26T10:00:13;6.43;;;1.63;;
44426;SDS011;30133;47.866;-4.222;2024-02-26T10:02:45;8.13;;;2.78;;
44426;SDS011;30133;47.866;-4.222;2024-02-26T10:05:14;7.35;;;1.60;;
44426;SDS011;30133;47.866;-4.222;2024-02-26T10:07:43;4.63;;;1.30;;
44426;SDS011;30133;47.866;-4.222;2024-02-26T10:10:10;6.53;;;1.48;;
44426;SDS011;30133;47.866;-4.222;2024-02-26T10:12:36;6.22;;;1.83;;
44426;SDS011;30133;47.866;-4.222;2024-02-26T10:15:02;10.60;;;1.98;;
44426;SDS011;30133;47.866;-4.222;2024-02-26T10:17:28;6.47;;;2.00;;
44426;SDS011;30133;47.866;-4.222;2024-02-26T10:19:54;5.00;;;1.70;;
44426;SDS011;30133;47.866;-4.222;2024-02-26T10:22:21;9.52;;;2.05;;
44426;SDS011;30133;47.866;-4.222;2024-02-26T10:24:47;5.85;;;1.85;;
44426;SDS011;30133;47.866;-4.222;2024-02-26T10:27:13;7.47;;;2.03;;
44426;SDS011;30133;47.866;-4.222;2024-02-26T10:29:40;6.00;;;1.98;;
44426;SDS011;30133;47.866;-4.222;2024-02-26T10:32:08;8.52;;;2.10;;
44426;SDS011;30133;47.866;-4.222;2024-02-26T10:34:36;8.88;;;1.98;;
44426;SDS011;30133;47.866;-4.222;2024-02-26T10:37:03;7.32;;;1.70;;
44426;SDS011;30133;47.866;-4.222;2024-02-26T10:39:30;9.48;;;1.90;;
44426;SDS011;30133;47.866;-4.222;2024-02-26T10:41:55;6.85;;;1.48;;
44426;SDS011;30133;47.866;-4.222;2024-02-26T10:44:21;5.90;;;1.80;;
44426;SDS011;30133;47.866;-4.222;2024-02-26T10:46:47;5.38;;;1.95;;
44426;SDS011;30133;47.866;-4.222;2024-02-26T10:49:16;8.00;;;1.67;;
44426;SDS011;30133;47.866;-4.222;2024-02-26T10:51:44;7.57;;;2.10;;
44426;SDS011;30133;47.866;-4.222;2024-02-26T10:54:12;6.43;;;1.88;;
44426;SDS011;30133;47.866;-4.222;2024-02-26T10:56:41;5.38;;;1.85;;
44426;SDS011;30133;47.866;-4.222;2024-02-26T10:59:11;5.05;;;1.63;;
44426;SDS011;30133;47.866;-4.222;2024-02-26T11:01:37;7.80;;;2.17;;
44426;SDS011;30133;47.866;-4.222;2024-02-26T11:04:06;9.95;;;2.33;;
44426;SDS011;30133;47.866;-4.222;2024-02-26T11:06:33;6.07;;;1.48;;
44426;SDS011;30133;47.866;-4.222;2024-02-26T11:09:00;7.60;;;1.60;;
44426;SDS011;30133;47.866;-4.222;2024-02-26T11:11:27;8.65;;;1.77;;
44426;SDS011;30133;47.866;-4.222;2024-02-26T11:13:54;6.45;;;2.10;;
44426;SDS011;30133;47.866;-4.222;2024-02-26T11:16:23;8.60;;;2.13;;
44426;SDS011;30133;47.866;-4.222;2024-02-26T11:18:51;8.93;;;1.80;;
44426;SDS011;30133;47.866;-4.222;2024-02-26T11:21:20;8.15;;;1.95;;
44426;SDS011;30133;47.866;-4.222;2024-02-26T11:23:53;5.97;;;1.92;;
44426;SDS011;30133;47.866;-4.222;2024-02-26T11:26:20;7.22;;;1.95;;
44426;SDS011;30133;47.866;-4.222;2024-02-26T11:28:47;7.85;;;2.00;;
44426;SDS011;30133;47.866;-4.222;2024-02-26T11:31:14;8.45;;;2.10;;
44426;SDS011;30133;47.866;-4.222;2024-02-26T11:33:59;11.15;;;2.00;;
44426;SDS011;30133;47.866;-4.222;2024-02-26T11:36:25;5.72;;;1.95;;
44426;SDS011;30133;47.866;-4.222;2024-02-26T11:38:50;7.57;;;1.98;;
44426;SDS011;30133;47.866;-4.222;2024-02-26T11:41:17;5.10;;;2.08;;
44426;SDS011;30133;47.866;-4.222;2024-02-26T11:43:53;4.88;;;1.45;;
44426;SDS011;30133;47.866;-4.222;2024-02-26T11:48:54;7.10;;;1.60;;
44426;SDS011;30133;47.866;-4.222;2024-02-26T11:51:28;5.97;;;1.70;;
44426;SDS011;30133;47.866;-4.222;2024-02-26T11:53:58;13.27;;;2.50;;
44426;SDS011;30133;47.866;-4.222;2024-02-26T11:56:24;5.82;;;2.28;;
44426;SDS011;30133;47.866;-4.222;2024-02-26T11:59:01;6.18;;;1.60;;
44426;SDS011;30133;47.866;-4.222;2024-02-26T12:01:41;9.77;;;2.33;;
44426;SDS011;30133;47.866;-4.222;2024-02-26T12:04:26;9.43;;;1.70;;
44426;SDS011;30133;47.866;-4.222;2024-02-26T12:07:02;7.00;;;1.70;;
44426;SDS011;30133;47.866;-4.222;2024-02-26T12:12:03;5.35;;;1.58;;
44426;SDS011;30133;47.866;-4.222;2024-02-26T12:14:36;10.57;;;2.55;;
44426;SDS011;30133;47.866;-4.222;2024-02-26T12:17:25;8.00;;;1.92;;
44426;SDS011;30133;47.866;-4.222;2024-02-26T12:19:52;4.13;;;1.50;;
44426;SDS011;30133;47.866;-4.222;2024-02-26T12:22:19;11.80;;;2.72;;
44426;SDS011;30133;47.866;-4.222;2024-02-26T12:24:45;8.27;;;1.73;;
44426;SDS011;30133;47.866;-4.222;2024-02-26T12:27:11;10.20;;;2.65;;
44426;SDS011;30133;47.866;-4.222;2024-02-26T12:29:37;6.45;;;1.88;;
44426;SDS011;30133;47.866;-4.222;2024-02-26T12:32:04;5.10;;;1.83;;
44426;SDS011;30133;47.866;-4.222;2024-02-26T12:34:30;7.18;;;1.52;;
44426;SDS011;30133;47.866;-4.222;2024-02-26T12:36:57;9.27;;;2.13;;
44426;SDS011;30133;47.866;-4.222;2024-02-26T12:39:23;7.22;;;1.88;;
44426;SDS011;30133;47.866;-4.222;2024-02-26T12:41:49;5.93;;;1.88;;
44426;SDS011;30133;47.866;-4.222;2024-02-26T12:44:16;6.30;;;1.83;;
44426;SDS011;30133;47.866;-4.222;2024-02-26T12:46:42;8.65;;;2.42;;
44426;SDS011;30133;47.866;-4.222;2024-02-26T12:49:07;5.00;;;1.50;;
44426;SDS011;30133;47.866;-4.222;2024-02-26T12:51:33;7.95;;;1.60;;
44426;SDS011;30133;47.866;-4.222;2024-02-26T12:54:00;5.85;;;1.67;;
44426;SDS011;30133;47.866;-4.222;2024-02-26T12:56:26;7.32;;;1.90;;
44426;SDS011;30133;47.866;-4.222;2024-02-26T12:58:53;9.05;;;1.75;;
44426;SDS011;30133;47.866;-4.222;2024-02-26T13:01:23;6.50;;;1.67;;
44426;SDS011;30133;47.866;-4.222;2024-02-26T13:03:50;5.07;;;1.60;;
44426;SDS011;30133;47.866;-4.222;2024-02-26T13:06:18;9.50;;;1.92;;
44426;SDS011;30133;47.866;-4.222;2024-02-26T13:08:45;7.50;;;2.10;;
44426;SDS011;30133;47.866;-4.222;2024-02-26T13:11:12;7.35;;;1.80;;
44426;SDS011;30133;47.866;-4.222;2024-02-26T13:13:41;7.53;;;1.65;;
44426;SDS011;30133;47.866;-4.222;2024-02-26T13:16:14;6.47;;;1.85;;
44426;SDS011;30133;47.866;-4.222;2024-02-26T13:18:41;6.85;;;1.75;;
44426;SDS011;30133;47.866;-4.222;2024-02-26T13:21:08;7.03;;;2.13;;
44426;SDS011;30133;47.866;-4.222;2024-02-26T13:23:39;7.13;;;1.73;;
44426;SDS011;30133;47.866;-4.222;2024-02-26T13:26:05;7.60;;;2.10;;
44426;SDS011;30133;47.866;-4.222;2024-02-26T13:28:32;7.57;;;1.75;;
44426;SDS011;30133;47.866;-4.222;2024-02-26T13:30:59;6.82;;;1.75;;
44426;SDS011;30133;47.866;-4.222;2024-02-26T13:33:26;7.82;;;1.70;;
44426;SDS011;30133;47.866;-4.222;2024-02-26T13:35:57;6.35;;;1.77;;
44426;SDS011;30133;47.866;-4.222;2024-02-26T13:38:24;4.90;;;1.73;;
44426;SDS011;30133;47.866;-4.222;2024-02-26T13:40:50;5.43;;;1.92;;
44426;SDS011;30133;47.866;-4.222;2024-02-26T13:43:17;7.43;;;1.83;;
44426;SDS011;30133;47.866;-4.222;2024-02-26T13:45:44;4.80;;;2.00;;
44426;SDS011;30133;47.866;-4.222;2024-02-26T13:48:10;7.07;;;2.00;;
44426;SDS011;30133;47.866;-4.222;2024-02-26T13:50:40;10.52;;;2.03;;
44426;SDS011;30133;47.866;-4.222;2024-02-26T13:53:10;5.93;;;1.30;;
44426;SDS011;30133;47.866;-4.222;2024-02-26T13:55:37;11.63;;;2.33;;
44426;SDS011;30133;47.866;-4.222;2024-02-26T13:58:05;6.53;;;2.00;;
44426;SDS011;30133;47.866;-4.222;2024-02-26T14:00:32;6.00;;;1.70;;
44426;SDS011;30133;47.866;-4.222;2024-02-26T14:02:59;4.63;;;1.52;;
44426;SDS011;30133;47.866;-4.222;2024-02-26T14:05:25;6.15;;;1.67;;
44426;SDS011;30133;47.866;-4.222;2024-02-26T14:07:52;7.55;;;1.70;;
44426;SDS011;30133;47.866;-4.222;2024-02-26T14:10:19;13.25;;;1.95;;
44426;SDS011;30133;47.866;-4.222;2024-02-26T14:12:45;4.57;;;1.42;;
44426;SDS011;30133;47.866;-4.222;2024-02-26T14:15:11;11.00;;;1.77;;
44426;SDS011;30133;47.866;-4.222;2024-02-26T14:17:37;5.68;;;1.83;;
44426;SDS011;30133;47.866;-4.222;2024-02-26T14:20:03;3.92;;;1.80;;
44426;SDS011;30133;47.866;-4.222;2024-02-26T14:22:29;3.78;;;1.35;;
44426;SDS011;30133;47.866;-4.222;2024-02-26T14:24:58;7.47;;;1.70;;
44426;SDS011;30133;47.866;-4.222;2024-02-26T14:27:24;5.85;;;1.40;;
44426;SDS011;30133;47.866;-4.222;2024-02-26T14:29:50;8.13;;;1.65;;
44426;SDS011;30133;47.866;-4.222;2024-02-26T14:32:16;5.63;;;2.10;;
44426;SDS011;30133;47.866;-4.222;2024-02-26T14:34:42;5.85;;;1.90;;
44426;SDS011;30133;47.866;-4.222;2024-02-26T14:37:08;7.38;;;1.83;;